createdAt,value
2023-02-14T00:01:11.048Z,63.70
2023-02-14T00:03:38.233Z,63.80
2023-02-14T00:06:08.068Z,64.20
2023-02-14T00:08:35.033Z,64.10
2023-02-14T00:11:03.880Z,64.00
2023-02-14T00:13:31.212Z,65.30
2023-02-14T00:15:57.993Z,65.80
2023-02-14T00:18:44.720Z,66.00
2023-02-14T00:21:11.477Z,65.30
2023-02-14T00:23:38.328Z,65.30
2023-02-14T00:26:05.299Z,65.90
2023-02-14T00:28:32.022Z,65.40
2023-02-14T00:31:00.497Z,65.80
2023-02-14T00:33:27.456Z,65.70
2023-02-14T00:35:54.240Z,64.90
2023-02-14T00:38:20.972Z,65.80
2023-02-14T00:40:47.730Z,65.80
2023-02-14T00:43:14.452Z,65.90
2023-02-14T00:45:42.403Z,66.10
2023-02-14T00:48:09.105Z,66.40
2023-02-14T00:50:35.959Z,66.60
2023-02-14T00:53:02.745Z,66.30
2023-02-14T00:55:29.542Z,67.30
2023-02-14T00:57:56.880Z,66.90
2023-02-14T01:00:23.777Z,67.00
2023-02-14T01:02:50.559Z,66.80
2023-02-14T01:05:17.439Z,66.40
2023-02-14T01:07:44.354Z,67.20
2023-02-14T01:10:11.375Z,67.80
2023-02-14T01:12:38.240Z,65.90
2023-02-14T01:15:05.488Z,65.40
2023-02-14T01:17:32.246Z,65.50
2023-02-14T01:19:59.069Z,65.90
2023-02-14T01:22:26.856Z,67.60
2023-02-14T01:24:53.550Z,67.50
2023-02-14T01:27:21.692Z,67.30
2023-02-14T01:29:48.420Z,67.40
2023-02-14T01:32:15.306Z,67.50
2023-02-14T01:34:42.012Z,67.00
2023-02-14T01:37:08.739Z,67.20
2023-02-14T01:39:35.569Z,66.80
2023-02-14T01:42:02.430Z,66.70
2023-02-14T01:44:29.128Z,67.40
2023-02-14T01:46:56.751Z,67.20
2023-02-14T01:49:31.174Z,66.70
2023-02-14T01:52:06.282Z,66.90
2023-02-14T01:54:38.266Z,66.50
2023-02-14T01:57:09.900Z,66.40
2023-02-14T01:59:41.811Z,66.70
2023-02-14T02:02:09.161Z,66.50
2023-02-14T02:04:41.204Z,66.70
2023-02-14T02:07:12.493Z,66.70
2023-02-14T02:09:51.021Z,66.80
2023-02-14T02:12:17.950Z,66.90
2023-02-14T02:14:46.324Z,66.80
2023-02-14T02:17:25.324Z,66.10
2023-02-14T02:20:10.550Z,66.40
2023-02-14T02:23:34.166Z,67.00
2023-02-14T02:26:38.065Z,67.30
2023-02-14T02:29:26.399Z,66.90
2023-02-14T02:32:21.162Z,67.70
2023-02-14T02:35:16.142Z,67.10
2023-02-14T02:38:02.575Z,67.10
2023-02-14T02:40:39.543Z,67.30
2023-02-14T02:43:54.558Z,66.90
2023-02-14T02:46:47.905Z,67.20
2023-02-14T02:50:09.640Z,67.80
2023-02-14T02:53:15.182Z,66.30
2023-02-14T02:56:08.792Z,66.90
2023-02-14T02:58:56.120Z,66.90
2023-02-14T03:01:33.806Z,66.50
2023-02-14T03:04:23.558Z,66.70
2023-02-14T03:06:51.656Z,66.90
2023-02-14T03:09:21.107Z,66.70
2023-02-14T03:12:07.855Z,66.20
2023-02-14T03:14:51.697Z,66.00
2023-02-14T03:17:21.665Z,66.80
2023-02-14T03:20:16.760Z,65.60
2023-02-14T03:23:04.043Z,65.80
2023-02-14T03:25:53.297Z,66.00
2023-02-14T03:28:45.566Z,66.90
2023-02-14T03:31:21.157Z,65.40
2023-02-14T03:34:00.465Z,65.60
2023-02-14T03:36:53.341Z,66.00
2023-02-14T03:39:25.581Z,65.70
2023-02-14T03:41:59.888Z,65.80
2023-02-14T03:44:29.429Z,66.20
2023-02-14T03:47:11.887Z,65.70
2023-02-14T03:49:46.092Z,65.30
2023-02-14T03:52:14.877Z,66.30
2023-02-14T03:54:42.802Z,65.80
2023-02-14T03:57:21.933Z,66.00
2023-02-14T03:59:49.038Z,65.20
2023-02-14T04:02:22.549Z,65.60
2023-02-14T04:04:52.773Z,66.20
2023-02-14T04:07:21.781Z,66.30
2023-02-14T04:09:49.204Z,66.50
2023-02-14T04:12:21.696Z,66.30
2023-02-14T04:14:50.694Z,65.80
2023-02-14T04:17:36.084Z,66.90
2023-02-14T04:20:02.948Z,67.10
2023-02-14T04:22:29.756Z,67.00
2023-02-14T04:24:56.478Z,66.10
2023-02-14T04:27:24.260Z,66.60
2023-02-14T04:29:52.674Z,66.20
2023-02-14T04:32:22.167Z,66.70
2023-02-14T04:34:49.628Z,67.00
2023-02-14T04:37:18.964Z,66.30
2023-02-14T04:39:45.984Z,66.40
2023-02-14T04:42:12.824Z,66.30
2023-02-14T04:44:40.790Z,66.40
2023-02-14T04:47:08.223Z,66.50
2023-02-14T04:49:36.026Z,66.70
2023-02-14T04:52:03.513Z,66.30
2023-02-14T04:54:30.496Z,66.50
2023-02-14T04:56:57.255Z,67.20
2023-02-14T04:59:25.076Z,65.90
2023-02-14T05:01:52.277Z,66.30
2023-02-14T05:04:19.209Z,65.00
2023-02-14T05:06:46.239Z,65.20
2023-02-14T05:09:13.038Z,65.90
2023-02-14T05:11:39.751Z,64.90
2023-02-14T05:14:06.496Z,65.00
2023-02-14T05:16:33.317Z,66.30
2023-02-14T05:19:00.262Z,65.70
2023-02-14T05:21:28.513Z,66.40
2023-02-14T05:23:55.306Z,67.00
2023-02-14T05:26:22.194Z,67.00
2023-02-14T05:28:48.885Z,67.00
2023-02-14T05:31:16.015Z,67.20
2023-02-14T05:33:42.912Z,67.50
2023-02-14T05:36:11.649Z,67.70
2023-02-14T05:38:38.336Z,67.90
2023-02-14T05:41:05.464Z,68.10
2023-02-14T05:43:32.357Z,68.30
2023-02-14T05:45:59.291Z,68.70
2023-02-14T05:48:26.119Z,69.00
2023-02-14T05:50:53.034Z,69.30
2023-02-14T05:53:21.044Z,69.30
2023-02-14T05:55:48.937Z,69.60
2023-02-14T05:58:15.849Z,69.80
2023-02-14T06:00:42.655Z,69.70
2023-02-14T06:03:09.429Z,70.50
2023-02-14T06:05:36.276Z,70.80
2023-02-14T06:08:03.149Z,70.90
2023-02-14T06:10:30.254Z,71.80
2023-02-14T06:12:57.166Z,71.40
2023-02-14T06:15:24.180Z,71.30
2023-02-14T06:17:55.664Z,71.50
2023-02-14T06:20:24.141Z,71.60
2023-02-14T06:22:51.720Z,71.70
2023-02-14T06:25:18.904Z,71.90
2023-02-14T06:27:48.834Z,71.90
2023-02-14T06:30:16.946Z,72.10
2023-02-14T06:32:45.200Z,72.50
2023-02-14T06:35:12.505Z,72.60
2023-02-14T06:37:41.153Z,72.90
2023-02-14T06:40:09.785Z,73.00
2023-02-14T06:42:36.554Z,73.20
2023-02-14T06:45:04.039Z,73.40
2023-02-14T06:47:30.815Z,73.50
2023-02-14T06:50:00.460Z,73.70
2023-02-14T06:52:27.407Z,73.80
2023-02-14T06:54:54.192Z,73.90
2023-02-14T06:57:20.900Z,74.00
2023-02-14T06:59:47.580Z,74.20
2023-02-14T07:02:14.496Z,74.30
2023-02-14T07:04:41.301Z,74.40
2023-02-14T07:07:08.078Z,74.60
2023-02-14T07:09:34.866Z,74.70
2023-02-14T07:12:01.709Z,74.60
2023-02-14T07:14:28.457Z,74.70
2023-02-14T07:16:55.235Z,74.80
2023-02-14T07:19:22.007Z,74.80
2023-02-14T07:21:48.809Z,74.90
2023-02-14T07:24:15.545Z,74.90
2023-02-14T07:26:42.297Z,74.80
2023-02-14T07:29:10.513Z,75.60
2023-02-14T07:31:37.305Z,75.00
2023-02-14T07:34:04.213Z,75.10
2023-02-14T07:36:30.929Z,75.20
2023-02-14T07:38:58.340Z,75.30
2023-02-14T07:41:25.379Z,75.60
2023-02-14T07:43:52.181Z,75.50
2023-02-14T07:46:19.062Z,75.50
2023-02-14T07:48:45.878Z,75.70
2023-02-14T07:51:12.667Z,76.30
2023-02-14T07:53:39.477Z,75.80
2023-02-14T07:56:06.487Z,75.80
2023-02-14T07:58:33.237Z,75.80
2023-02-14T08:01:01.375Z,76.00
2023-02-14T08:03:28.314Z,76.00
2023-02-14T08:05:57.705Z,76.10
2023-02-14T08:08:26.462Z,76.00
2023-02-14T08:10:53.723Z,76.40
2023-02-14T08:13:21.053Z,76.30
2023-02-14T08:16:06.238Z,76.40
2023-02-14T08:18:38.201Z,76.50
2023-02-14T08:21:07.443Z,76.50
2023-02-14T08:23:34.915Z,76.60
2023-02-14T08:26:02.006Z,76.70
2023-02-14T08:28:29.445Z,76.30
2023-02-14T08:30:56.324Z,64.40
2023-02-14T08:33:23.181Z,63.70
2023-02-14T08:35:51.580Z,63.80
2023-02-14T08:38:18.541Z,66.30
2023-02-14T08:40:45.300Z,67.10
2023-02-14T08:43:12.163Z,66.80
2023-02-14T08:45:39.612Z,68.20
2023-02-14T08:48:09.370Z,68.00
2023-02-14T08:50:37.844Z,67.60
2023-02-14T08:53:12.060Z,67.50
2023-02-14T08:55:40.233Z,67.60
2023-02-14T08:58:07.864Z,67.00
2023-02-14T09:00:35.252Z,67.00
2023-02-14T09:03:02.186Z,67.00
2023-02-14T09:05:29.022Z,66.40
2023-02-14T09:07:56.613Z,66.50
2023-02-14T09:10:24.656Z,66.70
2023-02-14T09:12:51.960Z,66.90
2023-02-14T09:15:18.798Z,66.80
2023-02-14T09:17:45.684Z,66.30
2023-02-14T09:20:14.231Z,66.80
2023-02-14T09:22:41.572Z,66.90
2023-02-14T09:25:08.627Z,66.80
2023-02-14T09:27:35.599Z,67.50
2023-02-14T09:30:02.532Z,68.30
2023-02-14T09:32:29.750Z,67.60
2023-02-14T09:34:56.628Z,67.70
2023-02-14T09:37:24.720Z,67.60
2023-02-14T09:39:51.812Z,67.80
2023-02-14T09:42:37.474Z,67.10
2023-02-14T09:45:15.477Z,67.20
2023-02-14T09:48:10.025Z,67.10
2023-02-14T09:50:48.490Z,67.10
2023-02-14T09:53:15.199Z,66.40
2023-02-14T09:56:07.396Z,66.10
2023-02-14T09:58:51.300Z,66.10
2023-02-14T10:01:26.400Z,66.30
2023-02-14T10:04:21.480Z,65.80
2023-02-14T10:06:50.985Z,65.40
2023-02-14T10:09:45.333Z,65.80
2023-02-14T10:12:27.828Z,66.10
2023-02-14T10:14:56.805Z,66.30
2023-02-14T10:17:44.702Z,66.20
2023-02-14T10:20:41.355Z,66.60
2023-02-14T10:23:24.657Z,66.20
2023-02-14T10:26:21.235Z,66.60
2023-02-14T10:28:50.352Z,66.20
2023-02-14T10:31:23.224Z,65.80
2023-02-14T10:34:19.220Z,65.10
2023-02-14T10:37:10.979Z,65.60
2023-02-14T10:39:46.902Z,65.90
2023-02-14T10:42:22.517Z,65.60
2023-02-14T10:45:01.533Z,65.90
2023-02-14T10:47:53.375Z,65.60
2023-02-14T10:50:20.399Z,65.90
2023-02-14T10:52:59.429Z,65.70
2023-02-14T10:55:42.571Z,66.10
2023-02-14T10:58:14.802Z,66.00
2023-02-14T11:00:56.226Z,66.20
2023-02-14T11:03:23.756Z,66.40
2023-02-14T11:05:51.770Z,66.30
2023-02-14T11:08:27.967Z,66.10
2023-02-14T11:11:21.333Z,66.10
2023-02-14T11:13:48.567Z,66.40
2023-02-14T11:16:35.965Z,66.20
2023-02-14T11:19:14.775Z,66.40
2023-02-14T11:21:44.492Z,66.10
2023-02-14T11:24:26.863Z,65.90
2023-02-14T11:27:02.657Z,66.00
2023-02-14T11:29:41.253Z,65.80
2023-02-14T11:32:16.266Z,66.10
2023-02-14T11:35:08.673Z,66.10
2023-02-14T11:37:44.538Z,66.10
2023-02-14T11:40:26.056Z,66.10
2023-02-14T11:43:02.200Z,65.80
2023-02-14T11:45:39.521Z,66.10
2023-02-14T11:48:31.498Z,66.10
2023-02-14T11:51:10.825Z,66.00
2023-02-14T11:53:53.834Z,66.10
2023-02-14T11:56:22.090Z,66.10
2023-02-14T11:59:03.408Z,66.10
2023-02-14T12:01:35.674Z,66.00
2023-02-14T12:04:07.445Z,66.00
2023-02-14T12:06:36.433Z,65.80
2023-02-14T12:09:24.672Z,65.70
2023-02-14T12:11:58.766Z,65.60
2023-02-14T12:14:29.841Z,65.60
2023-02-14T12:17:05.479Z,65.60
2023-02-14T12:20:00.633Z,65.50
2023-02-14T12:22:34.973Z,65.60
2023-02-14T12:25:14.685Z,65.40
2023-02-14T12:28:03.531Z,65.40
2023-02-14T12:30:34.896Z,65.40
2023-02-14T12:33:02.152Z,65.40
2023-02-14T12:36:04.388Z,65.10
2023-02-14T12:39:09.195Z,65.20
2023-02-14T12:41:49.246Z,65.10
2023-02-14T12:44:39.017Z,65.00
2023-02-14T12:47:16.729Z,66.50
2023-02-14T12:49:59.040Z,67.10
2023-02-14T12:52:52.839Z,66.80
2023-02-14T12:55:39.183Z,64.00
2023-02-14T12:58:06.015Z,63.90
2023-02-14T13:01:07.649Z,63.90
2023-02-14T13:04:02.751Z,64.10
2023-02-14T13:06:39.436Z,64.30
2023-02-14T13:09:18.452Z,64.30
2023-02-14T13:12:13.354Z,64.30
2023-02-14T13:15:19.100Z,64.30
2023-02-14T13:17:56.091Z,64.30
2023-02-14T13:20:33.068Z,64.40
2023-02-14T13:23:10.039Z,64.30
2023-02-14T13:25:42.831Z,64.30
2023-02-14T13:28:12.961Z,64.30
2023-02-14T13:30:43.069Z,64.30
2023-02-14T13:33:38.389Z,64.30
2023-02-14T13:36:11.070Z,64.30
2023-02-14T13:38:45.754Z,64.20
2023-02-14T13:41:15.503Z,64.20
2023-02-14T13:43:51.639Z,64.30
2023-02-14T13:46:33.499Z,64.30
2023-02-14T13:49:23.878Z,64.20
2023-02-14T13:51:55.881Z,64.20
2023-02-14T13:54:29.931Z,64.30
2023-02-14T13:56:58.593Z,62.80
2023-02-14T13:59:30.281Z,62.70
2023-02-14T14:02:30.203Z,62.60
2023-02-14T14:04:57.392Z,62.90
2023-02-14T14:07:30.872Z,63.00
2023-02-14T14:10:02.092Z,63.20
2023-02-14T14:12:29.875Z,63.40
2023-02-14T14:15:05.623Z,63.40
2023-02-14T14:17:44.491Z,63.40
2023-02-14T14:20:19.985Z,63.40
2023-02-14T14:22:53.215Z,63.50
2023-02-14T14:25:41.062Z,63.50
2023-02-14T14:28:19.267Z,63.80
2023-02-14T14:30:46.517Z,63.80
2023-02-14T14:33:34.840Z,63.80
2023-02-14T14:36:08.785Z,64.00
2023-02-14T14:38:47.305Z,63.90
2023-02-14T14:41:14.152Z,63.90
2023-02-14T14:43:42.073Z,63.90
2023-02-14T14:46:13.001Z,64.00
2023-02-14T14:48:51.460Z,63.90
2023-02-14T14:51:28.474Z,63.90
2023-02-14T14:54:06.041Z,64.30
2023-02-14T14:56:36.976Z,64.60
2023-02-14T14:59:22.566Z,62.90
2023-02-14T15:01:54.219Z,62.90
2023-02-14T15:04:30.170Z,62.90
2023-02-14T15:07:16.507Z,63.10
2023-02-14T15:09:43.935Z,63.40
2023-02-14T15:12:39.398Z,63.40
2023-02-14T15:15:10.058Z,63.60
2023-02-14T15:17:39.063Z,63.60
2023-02-14T15:20:10.270Z,63.60
2023-02-14T15:22:40.871Z,63.70
2023-02-14T15:25:11.325Z,63.70
2023-02-14T15:27:41.480Z,63.70
2023-02-14T15:30:23.993Z,63.70
2023-02-14T15:32:53.311Z,63.80
2023-02-14T15:35:26.339Z,63.80
2023-02-14T15:37:57.616Z,63.70
2023-02-14T15:40:27.358Z,63.80
2023-02-14T15:42:57.275Z,63.70
2023-02-14T15:45:30.922Z,63.70
2023-02-14T15:48:05.344Z,63.70
2023-02-14T15:50:35.552Z,63.80
2023-02-14T15:53:04.837Z,63.70
2023-02-14T15:55:33.533Z,63.60
2023-02-14T15:58:07.238Z,63.60
2023-02-14T16:00:35.547Z,63.40
2023-02-14T16:03:08.948Z,63.20
2023-02-14T16:05:35.726Z,63.10
2023-02-14T16:08:06.829Z,63.10
2023-02-14T16:10:34.781Z,63.20
2023-02-14T16:13:06.542Z,63.20
2023-02-14T16:15:38.595Z,63.30
2023-02-14T16:18:18.792Z,63.20
2023-02-14T16:20:48.783Z,63.20
2023-02-14T16:23:21.414Z,63.20
2023-02-14T16:25:48.965Z,63.20
2023-02-14T16:28:16.432Z,63.30
2023-02-14T16:30:45.536Z,63.30
2023-02-14T16:33:25.093Z,63.30
2023-02-14T16:35:52.002Z,63.40
2023-02-14T16:38:20.693Z,63.30
2023-02-14T16:40:51.202Z,63.30
2023-02-14T16:43:20.452Z,63.30
2023-02-14T16:45:47.901Z,63.20
2023-02-14T16:48:17.356Z,63.20
2023-02-14T16:50:46.184Z,63.20
2023-02-14T16:53:26.232Z,63.20
2023-02-14T16:55:55.470Z,63.20
2023-02-14T16:58:25.349Z,63.10
2023-02-14T17:00:52.165Z,63.20
2023-02-14T17:03:19.149Z,62.50
2023-02-14T17:05:46.245Z,62.70
2023-02-14T17:08:15.044Z,62.70
2023-02-14T17:10:42.918Z,62.70
2023-02-14T17:13:10.603Z,62.80
2023-02-14T17:15:40.817Z,62.80
2023-02-14T17:18:11.406Z,62.90
2023-02-14T17:20:38.635Z,62.90
2023-02-14T17:23:05.591Z,62.90
2023-02-14T17:25:32.482Z,63.00
2023-02-14T17:28:01.050Z,63.00
2023-02-14T17:30:28.422Z,63.00
2023-02-14T17:32:55.406Z,62.90
2023-02-14T17:35:22.385Z,63.00
2023-02-14T17:37:49.471Z,62.90
2023-02-14T17:40:16.305Z,62.90
2023-02-14T17:42:43.127Z,63.00
2023-02-14T17:45:11.837Z,63.00
2023-02-14T17:47:43.173Z,62.90
2023-02-14T17:50:10.628Z,62.90
2023-02-14T17:52:37.916Z,62.90
2023-02-14T17:55:05.619Z,63.20
2023-02-14T17:57:32.423Z,62.90
2023-02-14T17:59:59.894Z,63.20
2023-02-14T18:02:26.874Z,63.40
2023-02-14T18:04:53.728Z,62.60
2023-02-14T18:07:20.750Z,62.70
2023-02-14T18:09:47.540Z,62.70
2023-02-14T18:12:15.173Z,62.70
2023-02-14T18:14:42.837Z,62.70
2023-02-14T18:17:14.410Z,62.70
2023-02-14T18:19:41.305Z,62.80
2023-02-14T18:22:08.058Z,62.90
2023-02-14T18:24:35.032Z,63.50
2023-02-14T18:27:02.936Z,63.00
2023-02-14T18:29:29.956Z,63.00
2023-02-14T18:31:56.779Z,63.00
2023-02-14T18:34:23.640Z,62.90
2023-02-14T18:36:50.502Z,62.90
2023-02-14T18:39:20.033Z,62.90
2023-02-14T18:41:46.846Z,62.90
2023-02-14T18:44:13.806Z,62.90
2023-02-14T18:46:41.723Z,62.80
2023-02-14T18:49:09.873Z,62.90
2023-02-14T18:51:39.327Z,62.80
2023-02-14T18:54:06.669Z,62.80
2023-02-14T18:56:38.798Z,62.80
2023-02-14T18:59:10.136Z,62.70
2023-02-14T19:01:40.684Z,62.70
2023-02-14T19:04:08.960Z,62.70
2023-02-14T19:06:36.787Z,62.20
2023-02-14T19:09:09.575Z,62.20
2023-02-14T19:11:37.060Z,62.30
2023-02-14T19:14:09.809Z,62.30
2023-02-14T19:16:44.037Z,62.20
2023-02-14T19:19:10.948Z,62.20
2023-02-14T19:21:37.918Z,62.20
2023-02-14T19:24:09.367Z,62.10
2023-02-14T19:26:40.055Z,62.30
2023-02-14T19:29:10.760Z,62.30
2023-02-14T19:31:42.103Z,62.30
2023-02-14T19:34:15.072Z,62.30
2023-02-14T19:36:41.865Z,62.10
2023-02-14T19:39:08.682Z,62.00
2023-02-14T19:41:35.726Z,61.90
2023-02-14T19:44:06.151Z,62.00
2023-02-14T19:46:34.133Z,62.00
2023-02-14T19:49:01.876Z,62.00
2023-02-14T19:51:34.227Z,61.90
2023-02-14T19:54:05.347Z,62.00
2023-02-14T19:56:35.402Z,61.80
2023-02-14T19:59:07.753Z,61.90
2023-02-14T20:01:41.988Z,62.00
2023-02-14T20:04:21.006Z,62.10
2023-02-14T20:06:49.197Z,61.80
2023-02-14T20:09:17.131Z,61.70
2023-02-14T20:11:49.878Z,61.80
2023-02-14T20:14:23.843Z,61.80
2023-02-14T20:16:51.396Z,62.00
2023-02-14T20:19:21.064Z,62.00
2023-02-14T20:21:50.232Z,62.10
2023-02-14T20:24:29.178Z,62.10
2023-02-14T20:26:56.484Z,62.10
2023-02-14T20:29:24.634Z,62.30
2023-02-14T20:31:57.931Z,62.30
2023-02-14T20:34:24.956Z,62.30
2023-02-14T20:36:55.785Z,62.70
2023-02-14T20:39:29.966Z,62.90
2023-02-14T20:42:04.485Z,63.20
2023-02-14T20:44:31.642Z,63.20
2023-02-14T20:46:58.820Z,63.10
2023-02-14T20:49:27.684Z,63.00
2023-02-14T20:51:54.572Z,62.90
2023-02-14T20:54:23.939Z,62.80
2023-02-14T20:56:51.207Z,62.80
2023-02-14T20:59:26.893Z,62.70
2023-02-14T21:01:54.768Z,62.60
2023-02-14T21:04:21.841Z,62.60
2023-02-14T21:06:49.166Z,62.60
2023-02-14T21:09:18.577Z,62.30
2023-02-14T21:11:45.391Z,62.30
2023-02-14T21:14:13.441Z,62.40
2023-02-14T21:16:40.187Z,62.50
2023-02-14T21:19:06.920Z,62.40
2023-02-14T21:21:37.725Z,62.40
2023-02-14T21:24:08.190Z,62.50
2023-02-14T21:26:36.088Z,62.50
2023-02-14T21:29:03.042Z,62.50
2023-02-14T21:31:29.927Z,62.50
2023-02-14T21:33:58.758Z,62.50
2023-02-14T21:36:30.575Z,62.50
2023-02-14T21:39:00.039Z,62.60
2023-02-14T21:41:29.747Z,62.60
2023-02-14T21:43:59.506Z,62.60
2023-02-14T21:46:31.093Z,62.60
2023-02-14T21:49:18.387Z,62.50
2023-02-14T21:51:46.147Z,62.50
2023-02-14T21:54:13.297Z,62.50
2023-02-14T21:56:44.038Z,62.50
2023-02-14T21:59:11.628Z,62.50
2023-02-14T22:01:41.136Z,62.50
2023-02-14T22:04:09.930Z,61.40
2023-02-14T22:06:38.348Z,59.60
2023-02-14T22:09:05.308Z,58.90
2023-02-14T22:11:32.334Z,59.40
2023-02-14T22:14:02.618Z,59.70
2023-02-14T22:16:29.566Z,60.30
2023-02-14T22:18:57.542Z,61.20
2023-02-14T22:21:26.752Z,61.60
2023-02-14T22:23:55.330Z,62.40
2023-02-14T22:26:30.980Z,62.90
2023-02-14T22:29:00.373Z,63.10
2023-02-14T22:31:29.349Z,63.30
2023-02-14T22:33:56.501Z,63.50
2023-02-14T22:36:23.289Z,63.70
2023-02-14T22:38:50.171Z,64.00
2023-02-14T22:41:21.856Z,63.90
2023-02-14T22:43:49.126Z,64.00
2023-02-14T22:46:20.314Z,64.10
2023-02-14T22:48:49.129Z,64.20
2023-02-14T22:51:22.983Z,64.10
2023-02-14T22:53:51.381Z,64.30
2023-02-14T22:56:21.555Z,64.30
2023-02-14T22:58:48.785Z,64.40
2023-02-14T23:01:20.794Z,64.70
2023-02-14T23:03:48.540Z,64.10
2023-02-14T23:06:15.797Z,64.50
2023-02-14T23:08:44.813Z,64.40
2023-02-14T23:11:19.565Z,64.40
2023-02-14T23:14:05.327Z,64.50
2023-02-14T23:16:50.787Z,64.50
2023-02-14T23:19:41.985Z,64.40
2023-02-14T23:22:10.338Z,64.50
2023-02-14T23:24:37.653Z,64.50
2023-02-14T23:27:05.078Z,64.50
2023-02-14T23:29:31.952Z,64.60
2023-02-14T23:31:59.186Z,64.50
2023-02-14T23:34:31.242Z,64.50
2023-02-14T23:36:58.643Z,64.40
2023-02-14T23:39:25.602Z,64.40
2023-02-14T23:41:52.880Z,64.50
2023-02-14T23:44:21.152Z,64.40
2023-02-14T23:46:49.820Z,64.40
2023-02-14T23:49:17.744Z,64.40
2023-02-14T23:51:47.156Z,64.80
2023-02-14T23:54:14.973Z,65.40
2023-02-14T23:56:42.142Z,64.70
2023-02-14T23:59:09.740Z,64.60
